createdAt,value
2023-04-27T00:01:38.709Z,29.00
2023-04-27T00:04:05.947Z,30.00
2023-04-27T00:06:33.113Z,30.00
2023-04-27T00:09:00.523Z,30.50
2023-04-27T00:11:27.396Z,31.00
2023-04-27T00:13:54.336Z,31.00
2023-04-27T00:16:21.251Z,30.00
2023-04-27T00:18:48.258Z,30.00
2023-04-27T00:21:15.188Z,31.75
2023-04-27T00:23:42.104Z,30.00
2023-04-27T00:26:09.017Z,31.00
2023-04-27T00:28:36.051Z,29.50
2023-04-27T00:31:02.981Z,30.00
2023-04-27T00:33:30.155Z,29.00
2023-04-27T00:36:00.888Z,29.50
2023-04-27T00:38:28.812Z,30.00
2023-04-27T00:41:03.148Z,30.00
2023-04-27T00:43:30.289Z,31.00
2023-04-27T00:45:57.603Z,31.00
2023-04-27T00:48:26.468Z,31.00
2023-04-27T00:50:53.383Z,30.25
2023-04-27T00:53:20.584Z,30.00
2023-04-27T00:55:49.539Z,31.00
2023-04-27T00:58:16.448Z,31.00
2023-04-27T01:00:43.772Z,29.50
2023-04-27T01:03:11.035Z,31.00
2023-04-27T01:05:39.236Z,30.00
2023-04-27T01:08:07.944Z,29.00
2023-04-27T01:10:34.894Z,29.00
2023-04-27T01:13:02.434Z,28.00
2023-04-27T01:15:31.981Z,29.00
2023-04-27T01:17:59.943Z,30.50
2023-04-27T01:20:28.824Z,30.00
2023-04-27T01:22:56.830Z,30.00
2023-04-27T01:25:23.786Z,30.00
2023-04-27T01:27:50.731Z,30.00
2023-04-27T01:30:17.799Z,29.00
2023-04-27T01:32:44.885Z,29.00
2023-04-27T01:35:11.816Z,31.00
2023-04-27T01:37:38.914Z,31.00
2023-04-27T01:40:06.553Z,30.25
2023-04-27T01:42:33.553Z,31.00
2023-04-27T01:45:00.571Z,29.00
2023-04-27T01:47:28.200Z,28.50
2023-04-27T01:49:55.068Z,29.00
2023-04-27T01:52:21.989Z,30.00
2023-04-27T01:54:49.012Z,30.50
2023-04-27T01:57:16.085Z,30.25
2023-04-27T01:59:43.187Z,30.50
2023-04-27T02:02:10.274Z,31.00
2023-04-27T02:04:37.274Z,28.75
2023-04-27T02:07:04.293Z,28.50
2023-04-27T02:09:31.307Z,29.25
2023-04-27T02:11:58.320Z,30.50
2023-04-27T02:14:26.041Z,29.25
2023-04-27T02:16:52.963Z,30.00
2023-04-27T02:19:19.807Z,29.00
2023-04-27T02:21:46.742Z,30.00
2023-04-27T02:24:13.688Z,30.00
2023-04-27T02:26:40.923Z,29.75
2023-04-27T02:29:08.322Z,30.00
2023-04-27T02:31:36.405Z,30.00
2023-04-27T02:34:03.264Z,30.75
2023-04-27T02:36:30.221Z,29.75
2023-04-27T02:38:57.180Z,28.50
2023-04-27T02:41:24.423Z,30.00
2023-04-27T02:43:51.299Z,29.00
2023-04-27T02:46:18.363Z,29.00
2023-04-27T02:48:45.294Z,30.25
2023-04-27T02:51:12.306Z,32.00
2023-04-27T02:53:39.200Z,30.00
2023-04-27T02:56:06.315Z,31.00
2023-04-27T02:58:33.162Z,31.00
2023-04-27T03:01:00.283Z,30.00
2023-04-27T03:03:27.332Z,31.00
2023-04-27T03:05:54.397Z,31.00
2023-04-27T03:08:21.366Z,31.00
2023-04-27T03:10:48.389Z,32.00
2023-04-27T03:13:15.340Z,32.50
2023-04-27T03:15:43.901Z,34.00
2023-04-27T03:18:10.972Z,33.00
2023-04-27T03:20:37.917Z,34.00
2023-04-27T03:23:04.817Z,35.50
2023-04-27T03:25:31.717Z,37.75
2023-04-27T03:27:58.663Z,36.00
2023-04-27T03:30:25.704Z,35.00
2023-04-27T03:32:52.704Z,35.00
2023-04-27T03:35:19.728Z,35.75
2023-04-27T03:37:46.653Z,36.50
2023-04-27T03:40:14.029Z,36.50
2023-04-27T03:42:41.141Z,37.00
2023-04-27T03:45:08.997Z,37.00
2023-04-27T03:47:35.882Z,37.00
2023-04-27T03:50:02.921Z,36.75
2023-04-27T03:52:29.826Z,37.00
2023-04-27T03:54:56.718Z,37.00
2023-04-27T03:57:23.634Z,37.00
2023-04-27T03:59:50.622Z,36.00
2023-04-27T04:02:17.581Z,36.00
2023-04-27T04:04:44.914Z,36.00
2023-04-27T04:07:11.964Z,36.00
2023-04-27T04:09:39.814Z,36.00
2023-04-27T04:12:10.131Z,37.25
2023-04-27T04:14:38.835Z,38.00
2023-04-27T04:17:05.900Z,38.00
2023-04-27T04:19:34.102Z,37.00
2023-04-27T04:22:01.354Z,38.00
2023-04-27T04:24:28.927Z,38.00
2023-04-27T04:26:55.774Z,37.50
2023-04-27T04:29:22.819Z,36.00
2023-04-27T04:31:49.827Z,36.00
2023-04-27T04:34:16.950Z,36.00
2023-04-27T04:36:43.864Z,37.00
2023-04-27T04:39:10.868Z,36.00
2023-04-27T04:41:37.732Z,36.00
2023-04-27T04:44:04.988Z,36.00
2023-04-27T04:46:32.019Z,36.00
2023-04-27T04:48:59.089Z,37.00
2023-04-27T04:51:26.099Z,36.50
2023-04-27T04:53:53.177Z,36.00
2023-04-27T04:56:20.137Z,36.75
2023-04-27T04:58:47.277Z,36.50
2023-04-27T05:01:14.276Z,36.00
2023-04-27T05:03:42.130Z,36.75
2023-04-27T05:06:09.252Z,37.00
2023-04-27T05:08:36.309Z,36.75
2023-04-27T05:11:03.254Z,35.50
2023-04-27T05:13:30.216Z,36.00
2023-04-27T05:15:57.082Z,37.00
2023-04-27T05:18:24.230Z,37.00
2023-04-27T05:20:51.477Z,36.00
2023-04-27T05:23:18.462Z,35.00
2023-04-27T05:25:45.346Z,35.00
2023-04-27T05:28:12.319Z,34.00
2023-04-27T05:30:39.251Z,35.50
2023-04-27T05:33:06.616Z,36.00
2023-04-27T05:35:33.940Z,36.50
2023-04-27T05:38:01.008Z,36.25
2023-04-27T05:40:28.254Z,35.00
2023-04-27T05:42:55.196Z,35.00
2023-04-27T05:45:22.176Z,37.00
2023-04-27T05:47:51.512Z,36.75
2023-04-27T05:50:18.454Z,35.50
2023-04-27T05:52:45.448Z,37.00
2023-04-27T05:55:12.371Z,37.00
2023-04-27T05:57:39.763Z,36.00
2023-04-27T06:00:07.926Z,36.00
2023-04-27T06:02:39.380Z,35.50
2023-04-27T06:05:07.059Z,35.00
2023-04-27T06:07:34.118Z,35.00
2023-04-27T06:10:01.037Z,35.00
2023-04-27T06:12:27.904Z,35.50
2023-04-27T06:14:54.907Z,35.50
2023-04-27T06:17:22.196Z,36.00
2023-04-27T06:19:49.165Z,37.00
2023-04-27T06:22:16.023Z,36.00
2023-04-27T06:24:43.271Z,35.50
2023-04-27T06:27:10.174Z,36.00
2023-04-27T06:29:37.174Z,36.00
2023-04-27T06:32:04.235Z,36.00
2023-04-27T06:34:31.348Z,36.00
2023-04-27T06:36:58.241Z,37.00
2023-04-27T06:39:25.282Z,38.00
2023-04-27T06:41:52.076Z,37.00
2023-04-27T06:44:19.024Z,37.00
2023-04-27T06:46:46.082Z,37.00
2023-04-27T06:49:13.223Z,36.00
2023-04-27T06:51:40.177Z,35.00
2023-04-27T06:54:07.339Z,36.00
2023-04-27T06:56:34.374Z,36.00
2023-04-27T06:59:01.297Z,36.00
2023-04-27T07:01:28.269Z,36.00
2023-04-27T07:03:55.448Z,36.00
2023-04-27T07:06:22.730Z,36.00
2023-04-27T07:08:49.780Z,38.00
2023-04-27T07:11:16.717Z,37.50
2023-04-27T07:13:43.798Z,36.50
2023-04-27T07:16:10.874Z,36.00
2023-04-27T07:18:37.955Z,35.00
2023-04-27T07:21:05.897Z,35.00
2023-04-27T07:23:32.878Z,34.50
2023-04-27T07:25:59.766Z,36.00
2023-04-27T07:28:28.569Z,36.00
2023-04-27T07:31:14.097Z,36.00
2023-04-27T07:33:41.054Z,35.00
2023-04-27T07:36:08.134Z,35.00
2023-04-27T07:38:35.083Z,35.50
2023-04-27T07:41:02.173Z,36.00
2023-04-27T07:43:29.255Z,37.00
2023-04-27T07:45:56.187Z,37.00
2023-04-27T07:48:23.185Z,36.75
2023-04-27T07:50:50.601Z,36.00
2023-04-27T07:53:17.895Z,36.00
2023-04-27T07:55:47.234Z,35.50
2023-04-27T07:58:14.195Z,35.00
2023-04-27T08:00:41.173Z,36.25
2023-04-27T08:03:08.617Z,37.00
2023-04-27T08:05:36.082Z,36.00
2023-04-27T08:08:03.360Z,36.00
2023-04-27T08:10:30.321Z,36.00
2023-04-27T08:13:15.759Z,35.00
2023-04-27T08:16:01.221Z,36.00
2023-04-27T08:18:28.179Z,37.00
2023-04-27T08:20:55.380Z,36.00
2023-04-27T08:23:40.696Z,36.00
2023-04-27T08:26:07.877Z,36.75
2023-04-27T08:28:56.569Z,36.00
2023-04-27T08:31:24.929Z,36.00
2023-04-27T08:33:52.551Z,36.00
2023-04-27T08:36:23.031Z,36.00
2023-04-27T08:38:51.057Z,36.00
2023-04-27T08:41:22.586Z,37.00
2023-04-27T08:43:52.890Z,36.00
2023-04-27T08:46:24.442Z,36.00
2023-04-27T08:48:52.275Z,36.00
2023-04-27T08:51:20.135Z,36.50
2023-04-27T08:53:53.119Z,37.00
2023-04-27T08:56:20.755Z,36.00
2023-04-27T08:58:47.767Z,37.00
2023-04-27T09:01:15.207Z,36.50
2023-04-27T09:03:42.752Z,36.50
2023-04-27T09:06:09.802Z,36.00
2023-04-27T09:08:50.634Z,36.25
2023-04-27T09:11:30.355Z,36.00
2023-04-27T09:13:59.271Z,35.00
2023-04-27T09:16:27.565Z,36.00
2023-04-27T09:18:56.738Z,36.50
2023-04-27T09:21:30.472Z,37.00
2023-04-27T09:23:57.690Z,37.00
2023-04-27T09:26:27.011Z,37.00
2023-04-27T09:28:56.043Z,36.00
2023-04-27T09:31:31.877Z,36.00
2023-04-27T09:33:59.163Z,36.00
2023-04-27T09:36:26.585Z,37.00
2023-04-27T09:39:12.500Z,37.00
2023-04-27T09:41:39.708Z,37.00
2023-04-27T09:44:08.803Z,36.50
2023-04-27T09:46:36.138Z,36.00
2023-04-27T09:49:05.125Z,36.50
2023-04-27T09:51:32.077Z,36.50
2023-04-27T09:54:03.210Z,36.00
2023-04-27T09:56:56.359Z,36.00
2023-04-27T09:59:55.702Z,36.00
2023-04-27T10:02:25.637Z,37.00
2023-04-27T10:05:29.151Z,37.50
2023-04-27T10:07:56.291Z,37.50
2023-04-27T10:10:23.296Z,38.00
2023-04-27T10:13:02.843Z,37.50
2023-04-27T10:15:32.516Z,38.00
2023-04-27T10:18:05.207Z,37.00
2023-04-27T10:20:37.527Z,37.00
2023-04-27T10:23:04.664Z,37.00
2023-04-27T10:25:42.068Z,38.00
2023-04-27T10:28:16.868Z,38.00
2023-04-27T10:30:46.496Z,38.00
2023-04-27T10:33:17.969Z,37.00
2023-04-27T10:35:54.855Z,37.25
2023-04-27T10:38:27.705Z,37.00
2023-04-27T10:41:00.504Z,37.25
2023-04-27T10:43:29.734Z,37.00
2023-04-27T10:46:14.890Z,38.00
2023-04-27T10:48:47.782Z,39.00
2023-04-27T10:51:18.175Z,38.00
2023-04-27T10:53:45.114Z,38.00
2023-04-27T10:56:12.060Z,38.00
2023-04-27T10:58:48.748Z,38.00
2023-04-27T11:01:28.550Z,37.00
2023-04-27T11:03:57.068Z,37.00
2023-04-27T11:06:24.221Z,37.00
2023-04-27T11:08:51.186Z,37.00
2023-04-27T11:11:18.129Z,38.00
2023-04-27T11:13:45.284Z,37.50
2023-04-27T11:16:12.406Z,37.00
2023-04-27T11:18:39.604Z,37.50
2023-04-27T11:21:09.587Z,37.50
2023-04-27T11:23:39.475Z,37.75
2023-04-27T11:26:16.923Z,35.50
2023-04-27T11:28:45.715Z,38.50
2023-04-27T11:31:15.019Z,38.00
2023-04-27T11:33:51.025Z,37.50
2023-04-27T11:36:22.590Z,38.00
2023-04-27T11:38:49.803Z,38.00
2023-04-27T11:41:16.811Z,38.00
2023-04-27T11:43:44.835Z,37.00
2023-04-27T11:46:11.981Z,37.00
2023-04-27T11:48:40.066Z,38.00
2023-04-27T11:51:10.741Z,37.50
2023-04-27T11:53:39.812Z,41.50
2023-04-27T11:56:08.047Z,42.00
2023-04-27T11:58:36.331Z,39.00
2023-04-27T12:01:34.562Z,37.00
2023-04-27T12:04:04.833Z,37.00
2023-04-27T12:06:33.412Z,36.50
2023-04-27T12:09:00.931Z,36.50
2023-04-27T12:11:28.238Z,38.00
2023-04-27T12:13:56.029Z,39.00
2023-04-27T12:16:23.601Z,38.00
2023-04-27T12:18:50.679Z,37.00
2023-04-27T12:21:36.385Z,37.00
2023-04-27T12:24:03.529Z,37.00
2023-04-27T12:26:30.446Z,38.00
2023-04-27T12:28:57.428Z,38.00
2023-04-27T12:31:26.860Z,37.00
2023-04-27T12:33:54.772Z,37.00
2023-04-27T12:36:40.001Z,37.75
2023-04-27T12:39:20.910Z,37.00
2023-04-27T12:41:49.126Z,37.00
2023-04-27T12:44:17.404Z,36.00
2023-04-27T12:47:03.609Z,36.00
2023-04-27T12:49:30.577Z,36.00
2023-04-27T12:52:15.922Z,38.00
2023-04-27T12:55:01.585Z,37.00
2023-04-27T12:57:28.698Z,36.00
2023-04-27T12:59:57.722Z,36.00
2023-04-27T13:02:27.098Z,36.00
2023-04-27T13:04:54.382Z,36.00
2023-04-27T13:07:39.897Z,36.50
2023-04-27T13:10:25.832Z,36.00
2023-04-27T13:12:52.744Z,36.00
2023-04-27T13:15:19.722Z,35.25
2023-04-27T13:17:46.976Z,37.00
2023-04-27T13:20:32.473Z,36.00
2023-04-27T13:22:59.459Z,36.00
2023-04-27T13:25:26.409Z,36.00
2023-04-27T13:27:53.451Z,35.75
2023-04-27T13:30:20.473Z,36.00
2023-04-27T13:32:47.476Z,36.00
2023-04-27T13:35:33.249Z,36.50
2023-04-27T13:38:03.068Z,36.00
2023-04-27T13:40:48.606Z,36.50
2023-04-27T13:43:15.818Z,37.00
2023-04-27T13:45:42.753Z,36.00
2023-04-27T13:48:09.797Z,36.50
2023-04-27T13:50:36.732Z,36.00
2023-04-27T13:53:06.348Z,36.00
2023-04-27T13:55:33.573Z,36.00
2023-04-27T13:58:00.558Z,34.50
2023-04-27T14:00:27.622Z,35.50
2023-04-27T14:03:13.264Z,38.00
2023-04-27T14:05:40.367Z,37.00
2023-04-27T14:08:26.094Z,35.50
2023-04-27T14:10:53.811Z,35.00
2023-04-27T14:13:20.700Z,35.00
2023-04-27T14:16:06.620Z,35.00
2023-04-27T14:18:52.118Z,34.00
2023-04-27T14:21:19.135Z,34.00
2023-04-27T14:23:46.046Z,37.50
2023-04-27T14:26:13.145Z,38.00
2023-04-27T14:28:40.754Z,37.00
2023-04-27T14:31:07.777Z,36.00
2023-04-27T14:33:34.813Z,36.00
2023-04-27T14:36:01.795Z,35.00
2023-04-27T14:38:46.821Z,36.00
2023-04-27T14:41:13.887Z,36.00
2023-04-27T14:43:41.092Z,37.00
2023-04-27T14:46:19.802Z,36.00
2023-04-27T14:48:48.958Z,35.00
2023-04-27T14:51:16.806Z,34.50
2023-04-27T14:53:44.025Z,34.00
2023-04-27T14:56:11.553Z,33.00
2023-04-27T14:58:38.494Z,33.00
2023-04-27T15:01:24.296Z,33.00
2023-04-27T15:03:51.596Z,33.00
2023-04-27T15:06:18.787Z,33.00
2023-04-27T15:08:46.168Z,33.00
2023-04-27T15:11:13.189Z,32.00
2023-04-27T15:13:40.736Z,32.00
2023-04-27T15:16:07.758Z,32.00
2023-04-27T15:18:37.281Z,32.25
2023-04-27T15:21:04.401Z,33.00
2023-04-27T15:23:31.350Z,32.00
2023-04-27T15:26:17.003Z,31.50
2023-04-27T15:28:45.059Z,31.00
2023-04-27T15:31:12.039Z,31.25
2023-04-27T15:33:38.983Z,32.50
2023-04-27T15:36:06.095Z,33.00
2023-04-27T15:38:51.496Z,32.00
2023-04-27T15:41:18.664Z,30.50
2023-04-27T15:44:04.122Z,31.50
2023-04-27T15:46:31.159Z,32.00
2023-04-27T15:48:58.022Z,32.00
2023-04-27T15:51:25.004Z,33.00
2023-04-27T15:54:10.388Z,33.50
2023-04-27T15:56:37.495Z,33.00
2023-04-27T15:59:04.733Z,32.25
2023-04-27T16:01:31.802Z,32.00
2023-04-27T16:03:58.940Z,31.00
2023-04-27T16:06:34.145Z,31.50
2023-04-27T16:09:01.379Z,32.00
2023-04-27T16:11:46.882Z,32.00
2023-04-27T16:14:32.742Z,32.00
2023-04-27T16:17:02.369Z,32.25
2023-04-27T16:19:29.317Z,32.50
2023-04-27T16:21:56.646Z,29.50
2023-04-27T16:24:25.706Z,31.50
2023-04-27T16:26:52.595Z,33.50
2023-04-27T16:29:19.435Z,33.00
2023-04-27T16:31:50.179Z,33.00
2023-04-27T16:34:17.213Z,33.00
2023-04-27T16:36:44.129Z,32.50
2023-04-27T16:39:11.068Z,31.50
2023-04-27T16:41:37.947Z,32.00
2023-04-27T16:44:05.013Z,32.00
2023-04-27T16:46:32.155Z,33.00
2023-04-27T16:48:59.108Z,33.00
2023-04-27T16:51:25.955Z,33.00
2023-04-27T16:53:52.991Z,33.00
2023-04-27T16:56:30.548Z,34.00
2023-04-27T16:58:57.766Z,32.00
2023-04-27T17:01:25.392Z,34.50
2023-04-27T17:03:52.608Z,34.00
2023-04-27T17:06:19.668Z,34.00
2023-04-27T17:08:46.589Z,31.00
2023-04-27T17:11:13.394Z,33.50
2023-04-27T17:13:40.376Z,34.00
2023-04-27T17:16:07.378Z,33.00
2023-04-27T17:18:34.525Z,35.25
2023-04-27T17:21:01.403Z,35.00
2023-04-27T17:23:28.333Z,34.00
2023-04-27T17:25:56.154Z,33.75
2023-04-27T17:28:23.287Z,33.00
2023-04-27T17:30:51.090Z,33.00
2023-04-27T17:33:18.120Z,34.00
2023-04-27T17:36:00.670Z,34.00
2023-04-27T17:38:27.952Z,34.00
2023-04-27T17:40:54.850Z,33.00
2023-04-27T17:43:25.965Z,34.00
2023-04-27T17:45:53.273Z,33.00
2023-04-27T17:48:20.432Z,33.00
2023-04-27T17:50:47.649Z,32.50
2023-04-27T17:53:14.582Z,33.00
2023-04-27T17:55:43.561Z,33.50
2023-04-27T17:58:11.024Z,33.50
2023-04-27T18:00:38.451Z,34.00
2023-04-27T18:03:05.557Z,33.50
2023-04-27T18:05:33.837Z,33.00
2023-04-27T18:08:02.053Z,31.00
2023-04-27T18:10:29.138Z,32.00
2023-04-27T18:12:56.066Z,33.00
2023-04-27T18:15:23.159Z,34.00
2023-04-27T18:17:50.207Z,34.00
2023-04-27T18:20:17.182Z,31.00
2023-04-27T18:22:44.185Z,32.50
2023-04-27T18:25:11.327Z,33.00
2023-04-27T18:27:38.271Z,34.00
2023-04-27T18:30:06.571Z,33.00
2023-04-27T18:32:34.956Z,33.00
2023-04-27T18:35:02.751Z,32.50
2023-04-27T18:37:30.000Z,32.50
2023-04-27T18:39:57.679Z,33.00
2023-04-27T18:42:24.847Z,32.50
2023-04-27T18:44:54.696Z,33.00
2023-04-27T18:47:21.702Z,31.00
2023-04-27T18:49:48.751Z,33.00
2023-04-27T18:52:15.739Z,33.00
2023-04-27T18:54:43.073Z,31.50
2023-04-27T18:57:09.975Z,33.00
2023-04-27T18:59:38.267Z,32.00
2023-04-27T19:02:06.677Z,33.00
2023-04-27T19:04:34.458Z,32.75
2023-04-27T19:07:02.606Z,32.00
2023-04-27T19:09:29.533Z,32.50
2023-04-27T19:12:02.946Z,33.00
2023-04-27T19:14:32.036Z,33.50
2023-04-27T19:16:59.034Z,32.75
2023-04-27T19:19:26.058Z,33.00
2023-04-27T19:21:52.979Z,32.00
2023-04-27T19:24:20.019Z,32.50
2023-04-27T19:26:47.698Z,33.00
2023-04-27T19:29:48.845Z,33.00
2023-04-27T19:32:15.899Z,32.50
2023-04-27T19:34:42.741Z,32.50
2023-04-27T19:37:09.675Z,33.00
2023-04-27T19:39:36.697Z,32.50
2023-04-27T19:42:03.859Z,32.50
2023-04-27T19:44:30.905Z,32.25
2023-04-27T19:46:57.935Z,32.00
2023-04-27T19:49:24.785Z,32.75
2023-04-27T19:51:51.876Z,33.00
2023-04-27T19:54:18.868Z,33.00
2023-04-27T19:57:04.735Z,33.00
2023-04-27T19:59:31.679Z,32.00
2023-04-27T20:01:58.571Z,32.00
2023-04-27T20:04:25.834Z,32.00
2023-04-27T20:06:52.914Z,31.00
2023-04-27T20:09:19.970Z,31.00
2023-04-27T20:11:46.919Z,33.50
2023-04-27T20:14:14.156Z,34.00
2023-04-27T20:16:41.637Z,31.00
2023-04-27T20:19:08.679Z,32.00
2023-04-27T20:21:35.580Z,32.50
2023-04-27T20:24:02.488Z,32.50
2023-04-27T20:26:29.369Z,32.00
2023-04-27T20:28:56.258Z,33.75
2023-04-27T20:31:23.350Z,33.00
2023-04-27T20:33:50.257Z,34.00
2023-04-27T20:36:18.229Z,33.25
2023-04-27T20:38:46.343Z,33.50
2023-04-27T20:41:13.273Z,33.00
2023-04-27T20:43:40.785Z,33.00
2023-04-27T20:46:08.082Z,34.00
2023-04-27T20:48:35.158Z,35.00
2023-04-27T20:51:02.322Z,34.00
2023-04-27T20:53:29.454Z,32.50
2023-04-27T20:55:56.721Z,33.00
2023-04-27T20:58:23.669Z,33.00
2023-04-27T21:00:50.598Z,34.00
2023-04-27T21:03:17.770Z,31.00
2023-04-27T21:05:45.107Z,33.00
2023-04-27T21:08:12.159Z,33.00
2023-04-27T21:10:39.000Z,32.50
2023-04-27T21:13:05.836Z,33.00
2023-04-27T21:15:32.783Z,33.00
2023-04-27T21:17:59.805Z,33.00
2023-04-27T21:20:27.084Z,32.50
2023-04-27T21:22:53.908Z,34.00
2023-04-27T21:25:23.005Z,31.50
2023-04-27T21:27:50.723Z,32.50
2023-04-27T21:30:17.646Z,33.00
2023-04-27T21:32:44.781Z,34.00
2023-04-27T21:35:11.756Z,34.00
2023-04-27T21:37:38.720Z,34.00
2023-04-27T21:40:06.367Z,34.00
2023-04-27T21:42:33.403Z,33.50
2023-04-27T21:45:00.388Z,33.00
2023-04-27T21:47:27.382Z,33.00
2023-04-27T21:49:54.185Z,34.00
2023-04-27T21:52:21.015Z,33.00
2023-04-27T21:54:47.865Z,33.50
2023-04-27T21:57:14.720Z,34.00
2023-04-27T21:59:41.574Z,34.00
2023-04-27T22:02:08.569Z,34.00
2023-04-27T22:04:38.890Z,33.00
2023-04-27T22:07:07.371Z,32.00
2023-04-27T22:09:34.240Z,32.50
2023-04-27T22:12:01.861Z,32.50
2023-04-27T22:14:29.503Z,32.00
2023-04-27T22:16:56.522Z,32.00
2023-04-27T22:19:23.379Z,31.00
2023-04-27T22:21:50.413Z,31.00
2023-04-27T22:24:17.970Z,31.00
2023-04-27T22:26:45.057Z,30.00
2023-04-27T22:29:12.016Z,30.50
2023-04-27T22:31:39.040Z,30.50
2023-04-27T22:34:06.073Z,30.50
2023-04-27T22:36:33.918Z,30.00
2023-04-27T22:39:00.833Z,30.50
2023-04-27T22:41:27.704Z,31.00
2023-04-27T22:43:54.698Z,31.00
2023-04-27T22:46:21.724Z,30.50
2023-04-27T22:48:49.114Z,30.00
2023-04-27T22:51:16.923Z,30.25
2023-04-27T22:53:43.961Z,31.00
2023-04-27T22:56:11.008Z,30.00
2023-04-27T22:58:37.839Z,30.50
2023-04-27T23:01:04.892Z,30.00
2023-04-27T23:03:32.109Z,30.00
2023-04-27T23:05:59.295Z,30.50
2023-04-27T23:08:26.266Z,30.00
2023-04-27T23:10:53.152Z,30.00
2023-04-27T23:13:20.829Z,30.50
2023-04-27T23:15:48.393Z,30.50
2023-04-27T23:18:15.302Z,30.50
2023-04-27T23:20:42.234Z,30.00
2023-04-27T23:23:09.100Z,31.00
2023-04-27T23:25:36.152Z,30.00
2023-04-27T23:28:03.099Z,30.25
2023-04-27T23:30:30.011Z,30.00
2023-04-27T23:32:57.366Z,31.00
2023-04-27T23:35:26.918Z,31.00
2023-04-27T23:37:53.815Z,31.00
2023-04-27T23:40:20.872Z,30.50
2023-04-27T23:42:49.131Z,30.50
2023-04-27T23:45:17.937Z,31.00
2023-04-27T23:47:44.918Z,30.00
2023-04-27T23:50:11.952Z,31.00
2023-04-27T23:52:38.876Z,30.50
2023-04-27T23:55:06.431Z,31.00
2023-04-27T23:57:33.329Z,30.00
